Time;durP1;ratioP1;P1;durP2;ratioP2;P2;SDS_P1;SDS_P2;PMS_P1;PMS_P2;Temp;Humidity;BMP_temperature;BMP_pressure;BME280_temperature;BME280_humidity;BME280_pressure;Samples;Min_cycle;Max_cycle;Signal;HPM_P1;HPM_P2
2022/10/14 00:00:20;;;;;;;31.85;18.33;;;;;;;10.19;59.27;101452.66;5025929;28;20536;-66
2022/10/14 00:02:48;;;;;;;32.40;17.52;;;;;;;10.25;58.92;101446.38;5024841;28;20053;-68
2022/10/14 00:05:14;;;;;;;33.22;18.75;;;;;;;10.33;58.71;101454.00;5015965;28;20025;-68
2022/10/14 00:07:43;;;;;;;30.65;17.55;;;;;;;10.38;58.75;101447.72;5024275;28;20038;-69
2022/10/14 00:10:08;;;;;;;34.65;18.70;;;;;;;10.40;58.59;101445.06;5025991;28;20044;-69
2022/10/14 00:12:34;;;;;;;31.13;17.92;;;;;;;10.41;58.39;101446.75;5023790;28;20041;-69
2022/10/14 00:14:59;;;;;;;31.90;16.45;;;;;;;10.38;58.62;101442.50;5029934;28;20029;-70
2022/10/14 00:17:25;;;;;;;40.47;19.13;;;;;;;10.25;58.71;101445.53;5024495;28;20034;-69
2022/10/14 00:19:51;;;;;;;42.63;18.77;;;;;;;10.20;58.73;101443.91;5029846;28;20160;-69
2022/10/14 00:22:16;;;;;;;30.75;19.08;;;;;;;10.22;58.91;101439.47;5024049;28;20099;-69
2022/10/14 00:24:42;;;;;;;39.35;20.13;;;;;;;10.30;58.55;101433.16;5035263;28;20047;-69
2022/10/14 00:27:08;;;;;;;35.13;18.90;;;;;;;10.33;58.40;101439.16;5026035;28;20472;-72
2022/10/14 00:29:33;;;;;;;31.42;18.30;;;;;;;10.35;58.26;101436.53;5027660;28;20061;-69
2022/10/14 00:31:59;;;;;;;35.58;19.25;;;;;;;10.33;58.51;101435.72;5026613;28;20040;-69
2022/10/14 00:34:24;;;;;;;38.50;19.98;;;;;;;10.32;58.81;101436.59;5027018;28;20087;-69
2022/10/14 00:36:50;;;;;;;32.28;17.60;;;;;;;10.36;58.24;101436.44;5028945;28;20041;-67
2022/10/14 00:39:17;;;;;;;41.90;20.48;;;;;;;10.12;58.79;101434.56;5029799;28;20036;-67
2022/10/14 00:41:44;;;;;;;32.17;18.17;;;;;;;10.25;58.79;101429.84;5032412;28;20048;-68
2022/10/14 00:44:09;;;;;;;36.58;18.83;;;;;;;10.29;58.76;101434.09;5034516;28;20101;-67
2022/10/14 00:46:41;;;;;;;38.20;20.65;;;;;;;10.20;58.81;101438.66;5048735;28;20127;-66
2022/10/14 00:49:11;;;;;;;40.92;20.15;;;;;;;10.28;58.93;101435.84;5031670;28;20029;-67
2022/10/14 00:51:40;;;;;;;37.65;21.05;;;;;;;10.19;58.97;101447.41;5028203;28;20041;-69
2022/10/14 00:54:10;;;;;;;37.40;20.42;;;;;;;10.18;58.76;101448.31;5030945;28;20033;-66
2022/10/14 00:56:36;;;;;;;40.58;19.88;;;;;;;10.11;59.03;101441.56;5031771;28;20049;-66
2022/10/14 00:59:05;;;;;;;34.55;19.92;;;;;;;10.19;59.12;101438.72;5035668;28;20048;-67
2022/10/14 01:01:31;;;;;;;36.72;20.23;;;;;;;10.21;59.20;101445.63;5029767;28;20187;-67
2022/10/14 01:03:56;;;;;;;41.13;20.35;;;;;;;10.13;59.10;101437.16;5028287;28;20045;-67
2022/10/14 01:06:43;;;;;;;35.13;19.45;;;;;;;10.28;58.92;101445.41;5036264;28;20102;-67
2022/10/14 01:09:40;;;;;;;35.13;18.02;;;;;;;10.21;59.22;101443.00;5030247;28;20049;-67
2022/10/14 01:12:42;;;;;;;32.28;17.80;;;;;;;10.27;59.11;101441.09;5029635;28;20044;-66
2022/10/14 01:15:35;;;;;;;35.03;19.10;;;;;;;10.26;59.13;101442.00;5034720;28;20331;-70
2022/10/14 01:18:26;;;;;;;34.55;18.55;;;;;;;10.33;58.90;101435.72;5031694;28;20041;-71
2022/10/14 01:21:00;;;;;;;32.88;18.63;;;;;;;10.29;58.76;101434.94;5033115;28;20037;-71
2022/10/14 01:23:34;;;;;;;31.80;18.42;;;;;;;10.30;58.74;101433.16;5039543;28;20144;-71
2022/10/14 01:26:31;;;;;;;27.90;16.30;;;;;;;10.33;58.69;101433.94;5024140;28;20199;-71
2022/10/14 01:29:29;;;;;;;32.20;16.05;;;;;;;10.37;58.76;101432.06;5022979;28;20076;-71
2022/10/14 01:32:24;;;;;;;33.20;16.92;;;;;;;10.46;58.65;101430.94;5032557;28;21515;-71
2022/10/14 01:35:02;;;;;;;33.10;16.98;;;;;;;10.36;58.38;101428.63;5032795;28;20538;-70
2022/10/14 01:37:32;;;;;;;31.85;17.17;;;;;;;10.34;58.51;101424.34;5033501;28;20498;-71
2022/10/14 01:40:04;;;;;;;33.22;16.73;;;;;;;10.35;58.58;101421.69;5033142;28;20040;-71
2022/10/14 01:42:33;;;;;;;33.88;17.90;;;;;;;10.36;58.40;101422.53;5036633;28;20120;-71
2022/10/14 01:45:10;;;;;;;31.20;17.05;;;;;;;10.35;58.55;101420.84;5033295;28;20045;-71
2022/10/14 01:47:38;;;;;;;31.48;17.45;;;;;;;10.37;58.69;101421.63;5037646;28;20083;-71
2022/10/14 01:50:10;;;;;;;31.90;17.70;;;;;;;10.36;58.71;101417.31;5027098;28;20034;-66
2022/10/14 01:53:08;;;;;;;35.38;16.60;;;;;;;10.40;58.50;101414.56;5030071;28;20508;-66
2022/10/14 01:55:42;;;;;;;32.45;17.13;;;;;;;10.42;58.33;101417.13;5028487;28;20073;-66
2022/10/14 01:58:11;;;;;;;26.00;14.98;;;;;;;10.43;58.34;101413.59;5019929;28;20076;-66
2022/10/14 02:00:37;;;;;;;32.03;17.30;;;;;;;10.47;58.37;101419.59;5037147;28;20112;-67
2022/10/14 02:03:02;;;;;;;31.33;17.00;;;;;;;10.50;58.20;101415.13;5030721;28;20098;-67
2022/10/14 02:05:47;;;;;;;33.58;18.52;;;;;;;10.46;58.24;101408.31;5032274;28;20634;-67
2022/10/14 02:08:27;;;;;;;28.33;16.80;;;;;;;10.51;58.30;101406.38;5027196;28;20324;-67
2022/10/14 02:11:05;;;;;;;33.78;18.77;;;;;;;10.43;58.18;101411.00;5028382;28;20506;-66
2022/10/14 02:13:59;;;;;;;33.17;17.48;;;;;;;10.37;58.19;101409.44;5031089;28;20531;-66
2022/10/14 02:16:55;;;;;;;33.78;18.88;;;;;;;10.30;58.16;101400.06;5036313;28;20040;-66
2022/10/14 02:19:43;;;;;;;38.75;18.45;;;;;;;10.25;58.19;101394.13;5037053;28;20260;-66
2022/10/14 02:22:21;;;;;;;28.23;16.52;;;;;;;10.27;58.13;101394.94;5024761;28;20045;-65
2022/10/14 02:24:52;;;;;;;35.38;17.83;;;;;;;10.20;58.17;101396.03;5030100;28;20025;-66
2022/10/14 02:27:20;;;;;;;30.17;17.55;;;;;;;10.19;58.26;101391.69;5025849;28;20068;-66
2022/10/14 02:29:48;;;;;;;30.55;16.20;;;;;;;10.25;58.21;101398.50;5027043;28;20033;-66
2022/10/14 02:32:17;;;;;;;32.83;18.33;;;;;;;10.18;58.14;101401.28;5027073;28;20038;-67
2022/10/14 02:34:47;;;;;;;32.78;17.05;;;;;;;10.12;58.33;101398.84;5031770;28;20056;-67
2022/10/14 02:37:17;;;;;;;29.17;17.08;;;;;;;10.16;58.01;101397.84;5026039;28;20060;-68
2022/10/14 02:39:52;;;;;;;34.17;18.55;;;;;;;10.15;58.16;101396.16;5021051;28;20050;-68
2022/10/14 02:42:18;;;;;;;32.53;17.10;;;;;;;10.09;58.14;101396.34;5033888;28;20049;-68
2022/10/14 02:44:54;;;;;;;31.50;18.42;;;;;;;10.03;58.05;101391.28;5016209;28;20309;-68
2022/10/14 02:47:21;;;;;;;34.63;17.30;;;;;;;9.98;58.36;101380.13;5020368;28;20048;-68
2022/10/14 02:49:48;;;;;;;33.40;18.63;;;;;;;9.92;58.61;101377.69;5015368;28;20468;-67
2022/10/14 02:52:13;;;;;;;33.63;18.38;;;;;;;9.96;58.02;101382.78;5034735;28;20034;-70
2022/10/14 02:54:39;;;;;;;35.42;18.80;;;;;;;9.94;58.21;101383.72;5031393;28;20478;-70
2022/10/14 02:57:04;;;;;;;37.88;19.33;;;;;;;9.89;58.06;101380.41;5017304;28;20049;-69
2022/10/14 02:59:30;;;;;;;33.03;18.55;;;;;;;9.89;58.37;101373.41;5029822;28;20036;-69
2022/10/14 03:01:57;;;;;;;36.55;18.85;;;;;;;9.93;58.38;101375.03;5020816;28;20045;-65
2022/10/14 03:04:23;;;;;;;36.58;19.27;;;;;;;10.03;58.18;101373.00;5036422;28;20027;-65
2022/10/14 03:06:51;;;;;;;34.67;19.63;;;;;;;10.03;58.29;101367.78;5026679;28;20029;-65
2022/10/14 03:09:18;;;;;;;34.90;19.80;;;;;;;9.93;58.23;101361.16;5042051;28;20021;-65
2022/10/14 03:11:46;;;;;;;36.75;19.85;;;;;;;9.92;58.20;101369.88;5021993;28;20029;-65
2022/10/14 03:14:15;;;;;;;53.05;20.08;;;;;;;9.91;58.46;101368.16;5025466;28;20478;-66
2022/10/14 03:16:42;;;;;;;32.38;17.00;;;;;;;9.95;58.57;101369.78;5027104;28;20079;-69
2022/10/14 03:19:10;;;;;;;29.45;15.32;;;;;;;9.97;58.59;101368.84;5031779;28;20021;-64
2022/10/14 03:21:42;;;;;;;30.55;16.13;;;;;;;9.98;58.03;101365.31;5028267;28;20261;-65
2022/10/14 03:24:14;;;;;;;34.35;17.77;;;;;;;9.98;58.44;101369.69;5019533;28;20289;-66
2022/10/14 03:26:43;;;;;;;24.70;15.43;;;;;;;9.99;58.63;101368.78;5025574;28;20041;-65
2022/10/14 03:29:09;;;;;;;55.17;18.75;;;;;;;9.99;58.34;101376.59;5026275;28;20025;-67
2022/10/14 03:31:50;;;;;;;25.75;15.48;;;;;;;9.98;58.22;101375.75;5027634;28;20041;-66
2022/10/14 03:34:22;;;;;;;100.10;16.23;;;;;;;9.62;59.20;101377.66;5028699;28;20592;-65
2022/10/14 03:36:54;;;;;;;;;;;;;;;9.51;59.21;101379.69;5028014;28;20041;-65
2022/10/14 03:39:20;;;;;;;66.00;13.18;;;;;;;9.54;59.27;101377.00;5033780;28;19925;-65
2022/10/14 03:41:50;;;;;;;49.95;15.35;;;;;;;9.64;59.05;101370.63;5016188;28;20714;-65
2022/10/14 03:44:20;;;;;;;108.82;15.75;;;;;;;9.62;58.92;101377.66;5034693;28;20048;-65
2022/10/14 03:47:05;;;;;;;24.23;13.05;;;;;;;9.32;59.24;101379.31;5027572;28;20336;-65
2022/10/14 03:49:32;;;;;;;21.75;13.25;;;;;;;9.49;59.01;101371.06;5025490;28;20034;-67
2022/10/14 03:52:04;;;;;;;16.48;11.60;;;;;;;9.57;58.69;101379.53;5026442;28;20028;-66
2022/10/14 03:54:35;;;;;;;18.75;11.45;;;;;;;9.54;58.83;101369.16;5016425;28;20029;-66
2022/10/14 03:57:01;;;;;;;17.13;10.20;;;;;;;9.59;58.65;101368.16;5021036;28;20561;-66
2022/10/14 03:59:33;;;;;;;19.40;13.20;;;;;;;9.59;58.26;101372.53;5034445;28;20029;-65
2022/10/14 04:01:59;;;;;;;18.40;11.88;;;;;;;9.47;58.41;101375.47;5016589;28;20052;-67
2022/10/14 04:04:24;;;;;;;23.60;11.68;;;;;;;9.28;58.62;101372.50;5028150;28;20473;-67
2022/10/14 04:06:50;;;;;;;18.60;12.90;;;;;;;9.11;58.86;101371.19;5028315;28;20029;-66
2022/10/14 04:09:18;;;;;;;41.92;12.57;;;;;;;9.06;58.59;101357.41;5026657;28;20122;-67
2022/10/14 04:11:44;;;;;;;18.73;12.52;;;;;;;9.11;58.46;101362.50;5032210;28;20025;-68
2022/10/14 04:14:25;;;;;;;16.73;10.60;;;;;;;9.09;58.56;101362.53;5027580;28;20399;-68
2022/10/14 04:16:51;;;;;;;13.38;9.73;;;;;;;9.13;58.62;101360.72;5042961;28;20378;-67
2022/10/14 04:19:18;;;;;;;23.40;11.30;;;;;;;9.14;58.73;101365.91;5035739;28;20032;-67
2022/10/14 04:21:43;;;;;;;17.95;12.25;;;;;;;9.05;58.99;101354.84;5028002;28;20033;-68
2022/10/14 04:24:10;;;;;;;14.05;10.48;;;;;;;8.74;59.09;101364.28;5024753;28;20121;-68
2022/10/14 04:26:49;;;;;;;14.38;10.18;;;;;;;8.89;58.94;101360.44;5024409;28;20037;-68
2022/10/14 04:29:22;;;;;;;37.13;12.23;;;;;;;8.95;58.82;101360.28;5027836;28;20032;-69
2022/10/14 04:31:59;;;;;;;16.80;11.25;;;;;;;8.97;58.52;101358.50;5024936;28;20043;-68
2022/10/14 04:34:25;;;;;;;14.10;9.95;;;;;;;8.88;58.57;101353.53;5014358;28;20516;-68
2022/10/14 04:36:52;;;;;;;14.02;9.52;;;;;;;8.89;58.36;101355.22;5017069;28;20029;-68
2022/10/14 04:39:43;;;;;;;13.57;9.10;;;;;;;8.86;58.35;101351.84;5033323;28;20402;-67
2022/10/14 04:42:09;;;;;;;45.58;11.82;;;;;;;8.69;59.13;101352.22;5012906;28;20472;-68
2022/10/14 04:44:35;;;;;;;33.10;11.80;;;;;;;8.83;58.52;101352.78;5034343;28;20025;-66
2022/10/14 04:47:01;;;;;;;15.77;11.02;;;;;;;8.86;58.69;101357.06;5024124;28;20033;-71
2022/10/14 04:49:28;;;;;;;14.85;10.82;;;;;;;8.83;58.60;101347.56;5030581;28;20077;-71
2022/10/14 04:52:02;;;;;;;15.88;10.93;;;;;;;8.81;58.30;101341.53;5031400;28;20033;-71
2022/10/14 04:54:36;;;;;;;26.90;11.60;;;;;;;8.78;58.63;101341.59;5036376;28;20030;-71
2022/10/14 04:57:02;;;;;;;13.85;10.13;;;;;;;8.77;58.34;101339.91;5029373;28;20063;-66
2022/10/14 04:59:28;;;;;;;15.70;10.30;;;;;;;8.70;58.60;101343.53;5029611;28;20577;-67
2022/10/14 05:02:01;;;;;;;80.25;13.82;;;;;;;8.40;59.22;101348.56;5011720;28;20085;-68
2022/10/14 05:04:40;;;;;;;20.67;10.32;;;;;;;8.70;58.94;101349.59;5017636;28;20036;-68
2022/10/14 05:07:07;;;;;;;25.77;10.20;;;;;;;8.61;59.04;101346.38;5027854;28;20522;-68
2022/10/14 05:09:32;;;;;;;26.30;11.38;;;;;;;8.68;59.00;101342.72;5028231;28;20186;-69
2022/10/14 05:12:04;;;;;;;26.58;11.52;;;;;;;8.61;58.69;101343.75;5026235;28;20110;-69
2022/10/14 05:14:40;;;;;;;26.15;9.55;;;;;;;8.22;59.80;101349.84;5028978;28;20729;-69
2022/10/14 05:17:26;;;;;;;122.70;11.70;;;;;;;7.93;59.90;101353.09;5027285;28;20060;-69
2022/10/14 05:19:52;;;;;;;19.08;10.25;;;;;;;8.15;59.58;101350.88;5029128;28;20321;-69
2022/10/14 05:22:20;;;;;;;43.30;10.48;;;;;;;8.04;59.65;101343.28;5033299;28;20457;-69
2022/10/14 05:24:46;;;;;;;24.35;10.10;;;;;;;7.95;59.67;101346.94;5027308;28;20041;-71
2022/10/14 05:27:12;;;;;;;34.22;10.63;;;;;;;7.73;60.18;101351.78;5038616;28;20481;-66
2022/10/14 05:29:38;;;;;;;13.88;9.73;;;;;;;7.99;59.75;101345.16;5013171;28;20094;-68
2022/10/14 05:32:04;;;;;;;30.75;10.85;;;;;;;8.05;59.42;101344.19;5025331;28;20039;-64
2022/10/14 05:34:39;;;;;;;27.67;10.15;;;;;;;8.08;59.57;101344.09;5030391;28;20335;-65
2022/10/14 05:37:08;;;;;;;45.60;10.45;;;;;;;8.00;59.58;101344.25;5028546;28;20071;-65
2022/10/14 05:39:41;;;;;;;17.52;9.10;;;;;;;7.99;59.67;101345.16;5043273;28;20554;-66
2022/10/14 05:42:07;;;;;;;47.70;10.27;;;;;;;7.82;60.03;101345.50;5029355;28;20033;-66
2022/10/14 05:44:34;;;;;;;41.85;10.88;;;;;;;7.99;59.82;101344.31;5029869;28;20025;-67
2022/10/14 05:46:59;;;;;;;22.55;9.93;;;;;;;7.87;59.90;101335.00;5032927;28;20350;-66
2022/10/14 05:49:26;;;;;;;23.23;11.25;;;;;;;8.07;59.45;101337.16;5039636;28;20425;-66
2022/10/14 05:51:54;;;;;;;17.55;10.68;;;;;;;8.15;59.34;101340.47;5025972;28;20360;-66
2022/10/14 05:54:22;;;;;;;30.33;10.18;;;;;;;8.11;59.32;101324.06;5011286;28;20028;-72
2022/10/14 05:56:50;;;;;;;37.05;11.15;;;;;;;8.18;59.06;101334.31;5025979;28;20616;-65
2022/10/14 05:59:18;;;;;;;17.17;10.13;;;;;;;8.25;59.01;101338.50;5034442;28;20021;-66
2022/10/14 06:01:43;;;;;;;18.50;9.88;;;;;;;8.32;58.71;101337.47;5040493;28;20485;-66
2022/10/14 06:04:19;;;;;;;13.68;8.98;;;;;;;8.34;59.28;101336.56;5029930;28;20217;-66
2022/10/14 06:06:44;;;;;;;21.48;10.65;;;;;;;8.30;58.78;101339.25;5032778;28;20041;-64
2022/10/14 06:09:10;;;;;;;22.23;9.90;;;;;;;8.19;59.24;101325.63;5025551;28;20029;-65
2022/10/14 06:11:36;;;;;;;25.13;10.02;;;;;;;8.18;59.38;101326.50;5012190;28;20108;-66
2022/10/14 06:14:02;;;;;;;14.52;8.15;;;;;;;8.35;59.31;101327.84;5041315;28;20405;-65
2022/10/14 06:16:27;;;;;;;15.93;9.60;;;;;;;8.44;58.62;101315.50;5031335;28;20303;-67
2022/10/14 06:18:53;;;;;;;14.00;9.00;;;;;;;8.36;58.88;101319.16;5024332;28;20060;-65
2022/10/14 06:21:19;;;;;;;19.60;11.50;;;;;;;8.40;58.73;101316.47;5032540;28;20034;-64
2022/10/14 06:23:45;;;;;;;31.48;10.45;;;;;;;8.35;58.89;101308.75;5033948;28;20434;-64
2022/10/14 06:26:10;;;;;;;18.38;10.52;;;;;;;8.43;58.58;101308.59;5026572;28;20225;-65
2022/10/14 06:28:36;;;;;;;29.10;10.85;;;;;;;8.43;59.01;101306.84;5027382;28;20068;-65
2022/10/14 06:31:02;;;;;;;15.70;9.32;;;;;;;8.49;58.84;101309.25;5043054;28;20040;-66
2022/10/14 06:33:31;;;;;;;24.13;10.43;;;;;;;8.44;58.97;101313.75;5029260;28;20037;-66
2022/10/14 06:35:57;;;;;;;13.38;8.43;;;;;;;8.47;59.01;101310.19;5011140;28;20029;-65
2022/10/14 06:38:23;;;;;;;36.35;8.80;;;;;;;8.59;58.78;101309.06;5027991;28;20167;-65
2022/10/14 06:40:53;;;;;;;28.70;9.90;;;;;;;8.50;58.83;101304.94;5028667;28;20025;-65
2022/10/14 06:43:20;;;;;;;23.17;8.15;;;;;;;8.60;58.76;101301.19;5020806;28;20629;-65
2022/10/14 06:45:46;;;;;;;12.80;8.55;;;;;;;8.68;58.77;101303.63;5025700;28;20029;-65
2022/10/14 06:48:12;;;;;;;29.17;9.32;;;;;;;8.70;59.02;101296.63;5031997;28;20052;-65
2022/10/14 06:50:37;;;;;;;26.80;9.93;;;;;;;8.82;59.03;101300.69;5026342;28;20030;-65
2022/10/14 06:53:03;;;;;;;14.00;7.72;;;;;;;8.93;58.56;101302.13;5027096;28;20029;-70
2022/10/14 06:55:28;;;;;;;43.33;8.32;;;;;;;8.80;58.08;101292.91;5029918;28;20133;-72
2022/10/14 06:57:54;;;;;;;32.75;9.10;;;;;;;8.80;59.01;101292.91;5028661;28;20084;-71
2022/10/14 07:00:19;;;;;;;37.95;8.40;;;;;;;8.65;58.80;101294.13;5030408;28;20080;-66
2022/10/14 07:02:45;;;;;;;22.58;8.68;;;;;;;8.80;59.06;101299.88;5025962;28;20085;-66
2022/10/14 07:05:11;;;;;;;17.80;8.35;;;;;;;8.85;59.29;101301.47;5026892;28;20084;-65
2022/10/14 07:07:37;;;;;;;39.95;9.98;;;;;;;8.91;58.94;101296.09;5040026;28;20143;-66
2022/10/14 07:10:02;;;;;;;16.20;8.90;;;;;;;9.11;58.59;101305.97;5024673;28;20090;-68
2022/10/14 07:12:28;;;;;;;17.40;9.13;;;;;;;9.23;58.87;101306.53;5026546;28;20091;-65
2022/10/14 07:14:53;;;;;;;40.72;9.32;;;;;;;8.59;60.08;101306.47;5028040;28;20029;-64
2022/10/14 07:17:19;;;;;;;33.15;8.63;;;;;;;8.96;58.53;101316.81;5032604;28;20525;-66
2022/10/14 07:19:44;;;;;;;30.23;11.35;;;;;;;9.16;58.72;101316.28;5028181;28;20040;-66
2022/10/14 07:22:10;;;;;;;65.03;26.08;;;;;;;9.32;58.47;101316.72;5028357;28;20044;-70
2022/10/14 07:24:35;;;;;;;20.17;8.80;;;;;;;9.02;58.58;101313.22;5033175;28;20444;-68
2022/10/14 07:27:01;;;;;;;44.60;8.73;;;;;;;8.80;59.54;101323.31;5029438;28;20045;-71
2022/10/14 07:29:27;;;;;;;26.15;8.70;;;;;;;8.49;60.58;101324.91;5031018;28;20029;-70
2022/10/14 07:31:52;;;;;;;17.92;8.75;;;;;;;8.95;59.22;101323.78;5034710;28;21303;-69
2022/10/14 07:34:18;;;;;;;13.10;7.72;;;;;;;8.98;58.66;101315.91;5038517;28;20108;-69
2022/10/14 07:36:44;;;;;;;33.75;8.18;;;;;;;9.00;58.38;101309.78;5031757;28;20054;-69
2022/10/14 07:39:09;;;;;;;17.13;7.68;;;;;;;9.04;58.38;101307.06;5031310;28;20041;-69
2022/10/14 07:41:36;;;;;;;21.52;8.95;;;;;;;9.09;58.38;101312.13;5031231;28;20057;-69
2022/10/14 07:44:05;;;;;;;24.05;10.43;;;;;;;9.09;58.87;101309.53;5027924;28;20032;-70
2022/10/14 07:46:33;;;;;;;24.55;9.52;;;;;;;8.86;59.54;101304.94;5031370;28;20056;-69
2022/10/14 07:49:02;;;;;;;47.92;11.75;;;;;;;9.13;58.78;101305.94;5028833;28;20469;-70
2022/10/14 07:51:28;;;;;;;21.38;9.65;;;;;;;9.36;58.37;101300.94;5029501;28;20109;-69
2022/10/14 07:53:55;;;;;;;25.55;9.95;;;;;;;9.59;58.03;101309.91;5028653;28;20157;-69
2022/10/14 07:56:22;;;;;;;34.65;15.57;;;;;;;9.66;57.60;101313.19;5028856;28;20040;-70
2022/10/14 07:58:48;;;;;;;25.00;10.85;;;;;;;9.62;57.78;101312.41;5029787;28;20049;-70
2022/10/14 08:01:15;;;;;;;21.85;11.60;;;;;;;9.58;58.22;101314.22;5027710;28;20026;-69
2022/10/14 08:03:46;;;;;;;19.42;9.85;;;;;;;9.84;57.99;101314.44;5028877;28;20075;-69
2022/10/14 08:06:12;;;;;;;18.05;9.93;;;;;;;9.96;57.66;101324.47;5034148;28;20318;-69
2022/10/14 08:08:40;;;;;;;22.65;10.30;;;;;;;9.28;59.07;101326.41;5028680;28;20568;-69
2022/10/14 08:11:20;;;;;;;20.17;9.95;;;;;;;9.59;58.29;101320.34;5030688;28;20097;-69
2022/10/14 08:13:46;;;;;;;18.88;9.32;;;;;;;9.80;57.85;101314.50;5029753;28;20112;-69
2022/10/14 08:16:13;;;;;;;17.67;8.95;;;;;;;9.74;57.83;101317.25;5028028;28;20033;-69
2022/10/14 08:18:39;;;;;;;16.63;9.65;;;;;;;10.07;57.86;101316.31;5041923;28;20080;-69
2022/10/14 08:21:05;;;;;;;23.25;9.15;;;;;;;10.21;57.80;101314.13;5029556;28;20068;-69
2022/10/14 08:23:31;;;;;;;15.75;8.25;;;;;;;10.39;57.30;101315.31;5013833;28;20391;-69
2022/10/14 08:25:57;;;;;;;18.10;8.88;;;;;;;10.34;57.17;101314.59;5030551;28;20395;-69
2022/10/14 08:28:22;;;;;;;17.73;7.80;;;;;;;10.41;56.59;101316.09;5011505;28;20064;-69
2022/10/14 08:30:48;;;;;;;15.75;7.40;;;;;;;10.37;56.78;101319.72;5030061;28;20049;-69
2022/10/14 08:33:13;;;;;;;16.70;8.10;;;;;;;10.44;55.59;101310.81;5030183;28;20040;-69
2022/10/14 08:35:39;;;;;;;14.35;8.35;;;;;;;10.34;56.29;101314.59;5029572;28;20037;-69
2022/10/14 08:38:06;;;;;;;15.30;9.27;;;;;;;10.43;55.87;101309.06;5029632;28;20068;-69
2022/10/14 08:40:45;;;;;;;18.98;8.55;;;;;;;10.22;56.48;101306.25;5012223;28;20118;-69
2022/10/14 08:43:20;;;;;;;14.27;7.97;;;;;;;10.48;56.73;101301.97;5027270;28;20048;-68
2022/10/14 08:45:50;;;;;;;16.67;7.43;;;;;;;10.73;55.94;101301.16;5026892;28;20584;-69
2022/10/14 08:48:19;;;;;;;16.52;8.25;;;;;;;10.92;55.91;101301.38;5024032;28;20038;-69
2022/10/14 08:50:56;;;;;;;12.55;7.72;;;;;;;11.07;55.75;101305.25;5024913;28;20048;-69
2022/10/14 08:53:31;;;;;;;12.57;7.45;;;;;;;11.37;55.31;101304.13;5028069;28;20466;-69
2022/10/14 08:55:59;;;;;;;16.45;7.45;;;;;;;11.22;54.54;101294.22;5025756;28;20037;-69
2022/10/14 08:58:30;;;;;;;10.02;6.30;;;;;;;10.62;55.28;101293.66;5026862;28;20053;-70
2022/10/14 09:00:59;;;;;;;12.18;6.57;;;;;;;10.86;54.91;101291.13;5029885;28;20025;-69
2022/10/14 09:03:32;;;;;;;14.20;7.78;;;;;;;11.04;54.33;101280.03;5034159;28;20075;-69
2022/10/14 09:06:23;;;;;;;13.95;7.22;;;;;;;11.04;54.34;101275.66;5045593;28;20627;-69
2022/10/14 09:08:51;;;;;;;16.63;7.65;;;;;;;11.02;54.33;101272.25;5027621;28;20044;-69
2022/10/14 09:11:19;;;;;;;17.23;7.97;;;;;;;11.03;54.75;101273.09;5032798;28;20560;-68
2022/10/14 09:13:51;;;;;;;26.63;9.88;;;;;;;10.94;54.70;101268.19;5028155;28;20052;-69
2022/10/14 09:16:35;;;;;;;17.73;8.98;;;;;;;10.82;55.67;101264.25;5037232;28;20052;-68
2022/10/14 09:19:04;;;;;;;15.00;8.38;;;;;;;11.09;54.83;101259.81;5029672;28;20033;-69
2022/10/14 09:21:33;;;;;;;18.08;8.15;;;;;;;11.24;54.54;101261.00;5021198;28;20554;-68
2022/10/14 09:24:13;;;;;;;17.05;8.40;;;;;;;11.35;54.23;101261.47;5029302;28;20048;-66
2022/10/14 09:26:41;;;;;;;13.63;8.38;;;;;;;11.20;54.74;101259.41;5027677;28;22447;-68
2022/10/14 09:29:26;;;;;;;16.98;9.27;;;;;;;11.26;54.13;101264.41;5023230;28;20032;-68
2022/10/14 09:31:55;;;;;;;17.77;9.07;;;;;;;11.23;54.31;101262.75;5028224;28;20033;-68
2022/10/14 09:34:35;;;;;;;19.63;10.02;;;;;;;11.40;53.89;101262.16;5027602;28;20052;-68
2022/10/14 09:37:23;;;;;;;17.83;8.50;;;;;;;11.47;53.46;101270.63;5034414;28;20041;-68
2022/10/14 09:39:50;;;;;;;18.17;9.07;;;;;;;11.41;54.17;101274.31;5025488;28;20103;-68
2022/10/14 09:42:24;;;;;;;18.33;9.48;;;;;;;11.19;54.41;101276.00;5026676;28;20524;-68
2022/10/14 09:45:07;;;;;;;13.48;6.78;;;;;;;11.09;54.60;101264.19;5025129;28;20029;-69
2022/10/14 09:48:16;;;;;;;15.98;9.52;;;;;;;11.31;54.58;101257.25;5032803;28;20124;-68
2022/10/14 09:50:50;;;;;;;20.98;9.23;;;;;;;11.91;53.21;101261.97;4951449;28;20204;-68
2022/10/14 09:53:22;;;;;;;18.20;8.55;;;;;;;11.39;53.39;101264.81;4966392;28;20068;-69
2022/10/14 09:55:53;;;;;;;14.77;8.27;;;;;;;10.95;54.71;101260.31;4993690;28;20532;-68
2022/10/14 09:58:30;;;;;;;15.70;8.90;;;;;;;10.90;55.29;101266.59;5032994;28;20059;-67
2022/10/14 10:00:58;;;;;;;17.77;8.80;;;;;;;11.10;54.12;101269.34;5026082;28;20110;-67
2022/10/14 10:03:26;;;;;;;15.15;8.15;;;;;;;11.46;54.12;101267.16;5026917;28;20049;-68
2022/10/14 10:06:20;;;;;;;17.40;8.90;;;;;;;11.56;53.44;101266.81;5027266;28;20484;-68
2022/10/14 10:08:51;;;;;;;17.65;9.65;;;;;;;11.77;53.42;101260.75;5017041;28;20052;-68
2022/10/14 10:11:38;;;;;;;18.45;9.50;;;;;;;11.75;52.94;101257.31;5025805;28;20157;-68
2022/10/14 10:14:32;;;;;;;18.40;8.45;;;;;;;11.62;52.42;101253.47;5025800;28;20041;-68
2022/10/14 10:17:07;;;;;;;17.80;9.75;;;;;;;11.68;52.86;101248.84;5021677;28;20040;-69
2022/10/14 10:19:39;;;;;;;16.38;9.77;;;;;;;11.77;52.41;101245.06;5019592;28;20029;-69
2022/10/14 10:22:21;;;;;;;15.88;10.63;;;;;;;11.73;52.75;101246.06;5024033;28;20045;-69
2022/10/14 10:24:57;;;;;;;16.13;9.65;;;;;;;11.85;52.61;101248.22;5020403;28;20409;-69
2022/10/14 10:27:35;;;;;;;15.15;9.50;;;;;;;11.80;52.60;101247.56;5023343;28;20045;-68
2022/10/14 10:30:16;;;;;;;17.38;9.82;;;;;;;11.77;52.74;101245.06;5029862;28;20587;-68
2022/10/14 10:33:13;;;;;;;16.27;8.85;;;;;;;11.79;52.22;101239.75;5022648;28;20602;-70
2022/10/14 10:35:54;;;;;;;14.38;8.65;;;;;;;11.87;51.75;101242.94;5017838;28;20352;-69
2022/10/14 10:38:29;;;;;;;19.60;10.35;;;;;;;12.14;51.74;101243.59;5032013;28;20364;-69
2022/10/14 10:41:02;;;;;;;15.98;8.93;;;;;;;12.41;51.38;101230.25;5025984;28;20521;-69
2022/10/14 10:44:07;;;;;;;17.55;8.90;;;;;;;12.54;50.82;101215.72;5026180;28;20335;-68
2022/10/14 10:47:01;;;;;;;13.63;8.30;;;;;;;12.82;49.75;101210.13;4986826;28;20544;-69
2022/10/14 10:49:33;;;;;;;15.25;9.18;;;;;;;12.92;50.05;101205.34;5030004;28;20034;-69
2022/10/14 10:52:07;;;;;;;;;;;;;;;13.04;49.00;101209.19;5027414;28;20080;-68
2022/10/14 10:54:57;;;;;;;16.15;9.27;;;;;;;13.05;49.82;101203.88;5035137;28;20400;-69
2022/10/14 10:57:38;;;;;;;17.83;8.63;;;;;;;13.62;49.50;101206.53;5033982;28;20502;-69
2022/10/14 11:00:23;;;;;;;18.20;9.05;;;;;;;14.38;47.22;101201.03;5028268;28;20405;-69
2022/10/14 11:03:14;;;;;;;14.68;9.18;;;;;;;13.96;45.94;101194.38;5025488;28;20060;-68
2022/10/14 11:05:39;;;;;;;14.48;9.13;;;;;;;13.99;46.59;101189.00;5026331;28;20090;-70
2022/10/14 11:14:41;;;;;;;;;;;;;;;14.39;46.01;101183.47;5027670;28;20140;-70
2022/10/14 11:17:12;;;;;;;17.70;8.98;;;;;;;14.40;45.73;101183.41;5042667;28;19924;-69
2022/10/14 11:19:51;;;;;;;14.73;8.98;;;;;;;14.20;46.02;101181.78;5026377;28;20402;-70
2022/10/14 11:22:32;;;;;;;16.75;8.10;;;;;;;14.50;44.80;101176.78;5026149;28;20051;-69
2022/10/14 11:25:15;;;;;;;12.63;8.98;;;;;;;14.93;45.46;101171.03;5027447;28;20701;-68
2022/10/14 11:27:48;;;;;;;15.40;9.35;;;;;;;14.86;44.71;101170.53;5029788;28;20446;-68
2022/10/14 11:30:24;;;;;;;16.08;8.52;;;;;;;15.03;45.06;101169.59;5025194;28;20107;-67
2022/10/14 11:32:59;;;;;;;13.48;8.52;;;;;;;15.18;44.13;101171.41;5031645;28;20577;-67
2022/10/14 11:35:32;;;;;;;18.40;9.45;;;;;;;14.62;45.11;101159.50;5025240;28;20538;-68
2022/10/14 11:38:17;;;;;;;16.30;8.98;;;;;;;14.49;45.92;101161.09;5011519;28;20049;-68
2022/10/14 11:40:45;;;;;;;14.48;8.68;;;;;;;14.77;45.42;101157.88;5019440;28;20033;-70
2022/10/14 11:43:43;;;;;;;14.25;8.25;;;;;;;15.51;43.78;101148.59;5025855;28;20053;-67